Time;durP1;ratioP1;P1;durP2;ratioP2;P2;SDS_P1;SDS_P2;PMS_P1;PMS_P2;Temp;Humidity;BMP_temperature;BMP_pressure;BME280_temperature;BME280_humidity;BME280_pressure;Samples;Min_cycle;Max_cycle;Signal;HPM_P1;HPM_P2
2021/03/11 00:00:40;;;;;;;27.27;15.88;;;;;;;7.83;72.75;99923.09;5014379;28;20057;-87
2021/03/11 00:03:11;;;;;;;26.48;14.70;;;;;;;7.74;74.42;99911.16;5020000;28;20083;-86
2021/03/11 00:05:39;;;;;;;25.13;15.38;;;;;;;7.64;73.48;99900.16;5032555;28;20073;-85
2021/03/11 00:08:07;;;;;;;29.60;16.38;;;;;;;7.58;74.85;99902.19;5035705;28;20148;-88
2021/03/11 00:10:37;;;;;;;26.10;16.10;;;;;;;7.55;75.71;99894.44;5032506;28;20057;-87
2021/03/11 00:13:07;;;;;;;25.10;16.00;;;;;;;7.51;75.68;99888.44;5033370;28;20484;-86
2021/03/11 00:15:37;;;;;;;26.83;15.38;;;;;;;7.48;75.24;99882.44;5013963;28;20045;-89
2021/03/11 00:18:08;;;;;;;28.60;15.68;;;;;;;7.44;75.58;99888.75;5030705;28;20421;-85
2021/03/11 00:20:38;;;;;;;25.92;15.68;;;;;;;7.39;76.09;99881.91;5016804;28;20104;-86
2021/03/11 00:23:06;;;;;;;27.38;15.93;;;;;;;7.38;75.67;99859.13;5034062;28;20055;-83
2021/03/11 00:25:36;;;;;;;25.00;14.80;;;;;;;7.42;75.50;99857.19;5029796;28;20061;-84
2021/03/11 00:28:04;;;;;;;28.15;14.65;;;;;;;7.43;75.37;99850.16;5030591;28;20940;-86
2021/03/11 00:30:31;;;;;;;21.73;13.95;;;;;;;7.49;75.22;99853.41;5015332;28;20057;-85
2021/03/11 00:32:59;;;;;;;24.67;13.65;;;;;;;7.49;75.08;99853.41;5010923;28;20064;-84
2021/03/11 00:35:27;;;;;;;20.27;11.63;;;;;;;7.52;74.09;99842.72;5042408;28;20053;-86
2021/03/11 00:37:57;;;;;;;21.27;12.37;;;;;;;7.54;74.11;99851.44;5022648;28;20157;-87
2021/03/11 00:40:24;;;;;;;23.38;12.27;;;;;;;7.56;74.05;99840.78;5016192;28;20681;-84
2021/03/11 00:42:51;;;;;;;18.70;11.95;;;;;;;7.59;73.59;99838.88;5022302;28;20046;-85
2021/03/11 00:45:18;;;;;;;19.80;12.13;;;;;;;7.62;72.69;99832.63;5020364;28;20140;-85
2021/03/11 00:47:44;;;;;;;18.30;11.75;;;;;;;7.61;73.17;99813.34;5045646;28;20053;-85
2021/03/11 00:50:16;;;;;;;19.55;11.82;;;;;;;7.62;73.04;99820.31;5035987;28;20054;-87
2021/03/11 00:52:45;;;;;;;19.48;11.98;;;;;;;7.63;72.92;99805.38;5053619;28;20106;-88
2021/03/11 00:55:12;;;;;;;21.45;11.95;;;;;;;7.64;73.33;99799.19;5035180;28;20317;-85
2021/03/11 00:57:40;;;;;;;17.77;11.05;;;;;;;7.62;73.26;99799.25;5038712;28;20068;-86
2021/03/11 01:00:11;;;;;;;19.58;11.65;;;;;;;7.55;73.69;99794.31;5016746;28;20057;-86
2021/03/11 01:02:37;;;;;;;20.80;12.38;;;;;;;7.50;73.94;99780.50;5038889;28;20053;-83
2021/03/11 01:05:05;;;;;;;19.00;11.85;;;;;;;7.47;74.06;99764.81;5046269;28;20068;-85
2021/03/11 01:07:31;;;;;;;21.13;11.80;;;;;;;7.43;74.91;99755.31;5047084;28;20444;-85
2021/03/11 01:09:58;;;;;;;21.77;12.50;;;;;;;7.37;76.03;99740.66;5025834;28;20056;-86
2021/03/11 01:12:24;;;;;;;22.55;12.88;;;;;;;7.26;76.74;99735.00;5036482;28;20059;-87
2021/03/11 01:14:50;;;;;;;19.40;12.07;;;;;;;7.26;76.52;99735.84;5045630;28;20140;-86
2021/03/11 01:17:16;;;;;;;20.05;11.88;;;;;;;7.26;76.04;99727.94;5034452;28;20033;-84
2021/03/11 01:19:43;;;;;;;22.38;12.30;;;;;;;7.23;76.41;99722.84;5045588;28;20053;-85
2021/03/11 01:22:12;;;;;;;19.58;12.32;;;;;;;7.22;76.15;99723.75;5021828;28;20046;-83
2021/03/11 01:24:38;;;;;;;22.38;13.45;;;;;;;7.23;76.13;99720.22;5025695;28;20095;-85
2021/03/11 01:27:05;;;;;;;22.88;12.85;;;;;;;7.24;77.72;99708.72;5023855;28;20789;-87
2021/03/11 01:29:31;;;;;;;20.40;12.52;;;;;;;7.25;77.49;99726.25;5037507;28;20101;-85
2021/03/11 01:31:58;;;;;;;22.13;12.85;;;;;;;7.16;77.67;99708.22;5044209;28;20049;-85
2021/03/11 01:34:25;;;;;;;23.23;12.90;;;;;;;7.09;78.45;99698.88;5036003;28;20061;-88
2021/03/11 01:36:51;;;;;;;24.48;13.20;;;;;;;7.01;78.64;99691.31;5053326;28;20048;-86
2021/03/11 01:39:18;;;;;;;24.25;13.20;;;;;;;6.98;78.38;99686.19;5056341;28;20164;-84
2021/03/11 01:41:45;;;;;;;25.13;13.00;;;;;;;6.98;79.33;99690.59;5053055;28;20056;-86
2021/03/11 01:44:11;;;;;;;19.70;12.70;;;;;;;6.96;79.15;99674.00;5051417;28;20041;-86
2021/03/11 01:46:39;;;;;;;21.13;12.63;;;;;;;6.98;78.79;99680.91;5026680;28;20508;-84
2021/03/11 01:49:07;;;;;;;22.13;12.75;;;;;;;6.97;78.57;99667.81;5038489;28;20099;-84
2021/03/11 01:51:33;;;;;;;23.50;12.13;;;;;;;6.97;78.77;99652.03;5037151;28;20112;-85
2021/03/11 01:54:01;;;;;;;23.63;12.50;;;;;;;6.95;78.95;99653.88;5033130;28;20166;-85
2021/03/11 01:56:27;;;;;;;24.25;12.77;;;;;;;6.95;78.80;99643.34;5028326;28;20080;-85
2021/03/11 01:58:53;;;;;;;23.23;12.23;;;;;;;6.94;78.47;99639.84;5043362;28;20065;-85
2021/03/11 02:01:20;;;;;;;21.33;12.40;;;;;;;6.96;79.06;99624.84;5042476;28;20054;-85
2021/03/11 02:03:47;;;;;;;20.30;12.50;;;;;;;7.00;78.63;99609.78;5016334;28;20103;-83
2021/03/11 02:06:13;;;;;;;19.50;11.57;;;;;;;6.97;78.18;99602.88;5028280;28;20559;-86
2021/03/11 02:08:41;;;;;;;21.00;12.15;;;;;;;6.97;78.20;99599.38;5034056;28;20045;-84
2021/03/11 02:11:12;;;;;;;18.83;11.45;;;;;;;7.01;78.03;99596.56;5031859;28;20064;-86
2021/03/11 02:14:08;;;;;;;17.95;11.80;;;;;;;7.03;78.40;99578.06;5018079;28;20114;-85
2021/03/11 02:16:38;;;;;;;18.77;11.05;;;;;;;7.06;77.76;99575.31;5020698;28;20054;-85
2021/03/11 02:19:29;;;;;;;17.38;10.73;;;;;;;7.07;77.38;99571.75;5034477;28;20049;-85
2021/03/11 02:22:08;;;;;;;18.25;11.55;;;;;;;7.08;77.26;99564.69;5037280;28;20054;-84
2021/03/11 02:24:55;;;;;;;20.80;11.52;;;;;;;7.09;76.76;99561.13;5024583;28;20057;-84
2021/03/11 02:27:24;;;;;;;20.17;11.70;;;;;;;7.11;76.67;99544.31;5043935;28;20159;-85
2021/03/11 02:29:52;;;;;;;19.13;11.43;;;;;;;7.14;76.25;99544.19;5025786;28;20063;-88
2021/03/11 02:32:21;;;;;;;17.13;11.25;;;;;;;7.17;75.35;99538.78;5052618;28;20136;-84
2021/03/11 02:34:56;;;;;;;19.65;11.75;;;;;;;7.24;75.94;99556.00;5048248;28;20089;-83
2021/03/11 02:37:29;;;;;;;17.20;10.48;;;;;;;7.25;75.27;99536.63;5039229;28;20064;-83
2021/03/11 02:39:59;;;;;;;17.48;10.30;;;;;;;7.28;74.42;99525.97;5027981;28;20058;-86
2021/03/11 02:42:26;;;;;;;14.23;7.95;;;;;;;7.32;74.11;99521.41;5047753;28;20065;-86
2021/03/11 02:44:53;;;;;;;16.73;10.32;;;;;;;7.35;73.61;99524.75;5031635;28;20049;-85
2021/03/11 02:47:22;;;;;;;16.70;9.93;;;;;;;7.38;73.55;99519.34;5045392;28;20072;-85
2021/03/11 02:49:50;;;;;;;17.60;10.30;;;;;;;7.39;73.61;99513.16;5045910;28;20041;-84
2021/03/11 02:52:21;;;;;;;17.48;10.20;;;;;;;7.42;72.98;99503.38;5049623;28;20049;-84
2021/03/11 02:54:53;;;;;;;17.85;10.98;;;;;;;7.43;73.07;99508.56;5050548;28;20034;-87
2021/03/11 02:57:26;;;;;;;15.35;9.65;;;;;;;7.45;72.85;99483.03;5055256;28;20072;-85
2021/03/11 02:59:53;;;;;;;14.32;9.60;;;;;;;7.44;73.09;99489.22;5055219;28;20077;-85
2021/03/11 03:02:20;;;;;;;17.02;9.65;;;;;;;7.45;73.27;99487.44;5045507;28;20046;-85
2021/03/11 03:04:52;;;;;;;16.10;10.27;;;;;;;7.46;72.93;99483.88;5032002;28;20049;-84
2021/03/11 03:07:22;;;;;;;19.58;10.63;;;;;;;7.49;72.38;99463.50;5039416;28;20061;-84
2021/03/11 03:09:51;;;;;;;15.07;9.57;;;;;;;7.53;72.23;99466.84;5023878;28;20053;-83
2021/03/11 03:12:19;;;;;;;17.95;10.48;;;;;;;7.57;71.67;99458.69;5021173;28;20056;-85
2021/03/11 03:14:50;;;;;;;15.35;10.30;;;;;;;7.58;71.60;99460.41;5042019;28;20645;-84
2021/03/11 03:17:19;;;;;;;17.30;10.70;;;;;;;7.60;72.01;99463.81;5026769;28;20061;-84
2021/03/11 03:19:47;;;;;;;15.38;9.52;;;;;;;7.62;71.24;99448.78;5040427;28;20802;-84
2021/03/11 03:22:15;;;;;;;17.05;10.23;;;;;;;7.63;70.77;99447.88;5023182;28;20109;-84
2021/03/11 03:24:44;;;;;;;16.95;10.15;;;;;;;7.69;70.80;99454.63;5041587;28;20053;-84
2021/03/11 03:27:14;;;;;;;15.85;10.30;;;;;;;7.71;70.49;99444.88;5041596;28;20045;-85
2021/03/11 03:29:42;;;;;;;18.83;9.98;;;;;;;7.71;69.93;99444.88;5042759;28;20065;-85
2021/03/11 03:32:08;;;;;;;16.70;9.88;;;;;;;7.78;70.04;99462.06;5047695;28;20500;-85
2021/03/11 03:34:35;;;;;;;16.38;10.40;;;;;;;7.84;69.31;99472.31;5032344;28;20088;-84
2021/03/11 03:37:04;;;;;;;16.40;10.25;;;;;;;7.87;69.59;99458.13;5027971;28;20079;-84
2021/03/11 03:39:31;;;;;;;16.48;9.85;;;;;;;7.95;69.18;99459.41;5038570;28;20049;-85
2021/03/11 03:41:58;;;;;;;15.85;9.65;;;;;;;8.01;68.86;99464.41;5032016;28;20056;-85
2021/03/11 03:44:31;;;;;;;16.45;10.40;;;;;;;8.02;68.81;99462.63;5044474;28;20046;-86
2021/03/11 03:46:59;;;;;;;16.90;9.75;;;;;;;8.04;69.06;99469.47;5027005;28;20056;-84
2021/03/11 03:49:27;;;;;;;16.92;10.30;;;;;;;7.99;69.13;99458.34;5046549;28;20125;-83
2021/03/11 03:51:55;;;;;;;16.52;9.43;;;;;;;8.01;68.89;99445.94;5053259;28;20049;-83
2021/03/11 03:54:25;;;;;;;18.48;10.20;;;;;;;8.01;68.98;99443.31;5051461;28;20038;-84
2021/03/11 03:56:57;;;;;;;15.32;9.85;;;;;;;8.02;69.41;99442.38;5054999;28;20045;-83
2021/03/11 03:59:28;;;;;;;16.02;9.93;;;;;;;8.03;69.10;99436.13;5039002;28;20053;-85
2021/03/11 04:01:57;;;;;;;15.65;9.43;;;;;;;8.02;69.22;99445.00;5042451;28;20053;-84
2021/03/11 04:04:26;;;;;;;15.73;9.25;;;;;;;8.03;69.23;99441.41;5039972;28;20057;-85
2021/03/11 04:06:54;;;;;;;16.30;9.65;;;;;;;8.02;69.53;99426.56;5036766;28;20076;-86
2021/03/11 04:09:22;;;;;;;16.52;10.00;;;;;;;8.01;69.55;99430.13;5030875;28;20050;-85
2021/03/11 04:11:50;;;;;;;18.73;10.82;;;;;;;8.05;69.11;99422.88;5028577;28;20061;-83
2021/03/11 04:14:18;;;;;;;19.50;10.10;;;;;;;8.05;69.43;99422.88;5049589;28;20121;-84
2021/03/11 04:16:46;;;;;;;21.83;10.68;;;;;;;8.05;69.61;99428.16;5047309;28;20054;-85
2021/03/11 04:19:14;;;;;;;18.58;9.55;;;;;;;8.10;68.97;99426.13;5049441;28;20049;-85
2021/03/11 04:21:41;;;;;;;16.20;9.75;;;;;;;8.06;69.07;99428.06;5033824;28;20057;-81
2021/03/11 04:24:09;;;;;;;14.85;9.20;;;;;;;8.09;68.97;99434.97;5038179;28;20112;-85
2021/03/11 04:26:38;;;;;;;16.10;10.18;;;;;;;8.09;69.07;99433.19;5056950;28;20049;-85
2021/03/11 04:29:06;;;;;;;18.52;10.32;;;;;;;8.13;68.96;99425.13;5055335;28;20048;-83
2021/03/11 04:31:34;;;;;;;17.08;11.07;;;;;;;8.13;68.84;99427.78;5039873;28;20440;-84
2021/03/11 04:34:02;;;;;;;16.20;10.27;;;;;;;8.08;69.80;99418.31;5023482;28;20046;-83
2021/03/11 04:36:32;;;;;;;17.58;10.02;;;;;;;8.09;69.55;99405.97;5014549;28;20057;-86
2021/03/11 04:38:59;;;;;;;15.50;9.63;;;;;;;8.09;69.54;99404.19;5011455;28;20045;-84
2021/03/11 04:41:26;;;;;;;17.10;10.10;;;;;;;8.13;69.61;99404.88;5039843;28;20092;-84
2021/03/11 04:43:56;;;;;;;16.42;10.05;;;;;;;8.16;69.96;99404.72;5040515;28;20499;-83
2021/03/11 04:46:23;;;;;;;15.30;9.10;;;;;;;8.21;70.05;99397.41;5044058;28;20053;-86
2021/03/11 04:48:54;;;;;;;15.48;9.18;;;;;;;8.31;69.88;99395.16;5027309;28;20049;-86
2021/03/11 04:51:23;;;;;;;14.88;9.10;;;;;;;8.32;69.89;99383.69;5019874;28;20050;-85
2021/03/11 04:53:53;;;;;;;14.00;8.07;;;;;;;8.43;70.25;99386.59;5014091;28;20144;-85
2021/03/11 04:56:28;;;;;;;14.82;8.98;;;;;;;8.48;70.23;99384.56;5035893;28;20100;-84
2021/03/11 04:58:58;;;;;;;15.02;9.02;;;;;;;8.47;70.21;99380.22;5034613;28;20087;-87
2021/03/11 05:01:30;;;;;;;13.73;8.73;;;;;;;8.49;70.27;99365.19;5038387;28;20072;-82
2021/03/11 05:04:00;;;;;;;16.23;9.43;;;;;;;8.54;70.22;99346.44;5049957;28;20095;-86
2021/03/11 05:06:27;;;;;;;14.30;8.43;;;;;;;8.57;69.82;99338.34;5044522;28;20109;-83
2021/03/11 05:08:53;;;;;;;14.88;8.25;;;;;;;8.58;69.94;99337.41;5053941;28;20168;-85
2021/03/11 05:11:20;;;;;;;12.23;8.40;;;;;;;8.61;69.80;99348.66;5054899;28;20111;-87
2021/03/11 05:13:46;;;;;;;13.63;8.52;;;;;;;8.62;70.01;99333.69;5057296;28;20029;-84
2021/03/11 05:16:12;;;;;;;13.75;8.20;;;;;;;8.60;70.13;99315.28;5052646;28;20136;-83
2021/03/11 05:18:39;;;;;;;15.05;9.25;;;;;;;8.63;70.04;99309.84;5043111;28;20065;-85
2021/03/11 05:21:07;;;;;;;13.82;8.43;;;;;;;8.69;69.64;99320.03;5055239;28;20060;-84
2021/03/11 05:23:45;;;;;;;14.02;8.88;;;;;;;8.69;69.98;99308.63;5040466;28;20069;-85
2021/03/11 05:26:12;;;;;;;13.93;8.40;;;;;;;8.68;69.90;99310.41;5018142;28;20508;-86
2021/03/11 05:28:39;;;;;;;14.77;7.97;;;;;;;8.68;69.96;99299.88;5014913;28;20050;-83
2021/03/11 05:31:05;;;;;;;12.77;8.25;;;;;;;8.68;70.02;99291.94;5036820;28;20053;-87
2021/03/11 05:33:32;;;;;;;13.77;8.05;;;;;;;8.70;69.69;99289.22;5021197;28;20132;-85
2021/03/11 05:35:58;;;;;;;14.25;9.00;;;;;;;8.66;69.77;99293.81;5030983;28;20056;-86
2021/03/11 05:38:26;;;;;;;13.40;8.63;;;;;;;8.74;69.15;99302.16;5033612;28;20054;-85
2021/03/11 05:40:54;;;;;;;13.75;8.55;;;;;;;8.78;69.61;99311.63;5032810;28;20056;-83
2021/03/11 05:43:23;;;;;;;14.02;8.60;;;;;;;8.74;69.63;99312.72;5036567;28;20125;-85
2021/03/11 05:45:53;;;;;;;15.00;8.82;;;;;;;8.73;69.55;99305.75;5020347;28;20060;-82
2021/03/11 05:48:21;;;;;;;12.35;7.55;;;;;;;8.70;69.72;99295.34;5037222;28;20049;-85
2021/03/11 05:50:52;;;;;;;12.65;8.40;;;;;;;8.76;69.65;99291.53;5039073;28;20046;-84
2021/03/11 05:53:19;;;;;;;11.43;8.07;;;;;;;8.81;69.37;99294.75;5026846;28;20061;-87
2021/03/11 05:55:46;;;;;;;12.55;8.60;;;;;;;8.81;69.69;99296.56;5043903;28;20049;-84
2021/03/11 05:58:18;;;;;;;11.82;7.88;;;;;;;8.82;70.08;99307.00;5038072;28;20049;-86
2021/03/11 06:00:45;;;;;;;13.10;8.00;;;;;;;8.78;70.07;99298.41;5038676;28;20116;-81
2021/03/11 06:03:14;;;;;;;14.68;8.52;;;;;;;8.81;70.76;99293.91;5038682;28;20046;-84
2021/03/11 06:05:42;;;;;;;12.15;7.88;;;;;;;8.78;72.62;99308.97;5029313;28;20068;-89
2021/03/11 06:08:09;;;;;;;11.55;7.53;;;;;;;8.72;73.90;99304.03;5049223;28;20046;-87
2021/03/11 06:10:37;;;;;;;12.50;7.18;;;;;;;8.67;74.44;99294.66;5020934;28;20103;-85
2021/03/11 06:13:08;;;;;;;11.05;7.53;;;;;;;8.63;74.42;99287.88;5051908;28;20089;-85
2021/03/11 06:15:39;;;;;;;13.10;8.10;;;;;;;8.67;74.22;99289.38;5036186;28;20038;-86
2021/03/11 06:18:11;;;;;;;13.70;8.55;;;;;;;8.65;74.73;99286.00;5049469;28;20049;-87
2021/03/11 06:20:38;;;;;;;10.98;7.30;;;;;;;8.64;74.19;99226.25;5041554;28;20056;-84
2021/03/11 06:23:04;;;;;;;10.88;7.15;;;;;;;8.68;74.04;99228.59;5041694;28;20046;-85
2021/03/11 06:25:32;;;;;;;11.48;8.38;;;;;;;8.71;74.06;99244.28;5036031;28;20054;-84
2021/03/11 06:28:00;;;;;;;10.77;7.47;;;;;;;8.71;73.92;99246.91;5034580;28;20121;-85
2021/03/11 06:30:40;;;;;;;10.07;7.28;;;;;;;8.77;73.94;99236.00;5016357;28;20546;-84
2021/03/11 06:33:07;;;;;;;13.50;7.80;;;;;;;8.82;74.31;99238.34;5038537;28;20088;-85
2021/03/11 06:35:35;;;;;;;12.98;8.00;;;;;;;8.80;74.36;99240.25;5033348;28;20159;-87
2021/03/11 06:38:02;;;;;;;12.35;8.20;;;;;;;8.76;74.50;99260.69;5035079;28;20053;-84
2021/03/11 06:40:30;;;;;;;12.20;8.02;;;;;;;8.71;74.55;99244.28;5017644;28;20045;-87
2021/03/11 06:43:12;;;;;;;12.88;7.72;;;;;;;8.81;74.38;99255.16;5034033;28;20049;-84
2021/03/11 06:45:40;;;;;;;11.05;7.63;;;;;;;8.87;74.10;99248.66;5038257;28;20064;-84
2021/03/11 06:48:26;;;;;;;16.88;8.02;;;;;;;8.85;74.16;99254.03;5036132;28;20054;-83
2021/03/11 06:50:58;;;;;;;11.02;6.88;;;;;;;8.85;74.63;99242.63;5017797;28;20055;-83
2021/03/11 06:53:25;;;;;;;11.43;6.95;;;;;;;8.87;74.52;99256.56;5035204;28;20057;-85
2021/03/11 06:55:52;;;;;;;12.52;7.53;;;;;;;8.90;74.47;99266.97;5035387;28;20060;-85
2021/03/11 06:58:25;;;;;;;11.82;6.90;;;;;;;8.95;74.25;99262.28;5027037;28;20104;-83
2021/03/11 07:01:09;;;;;;;11.95;7.53;;;;;;;8.99;74.03;99248.78;5034775;28;20107;-85
2021/03/11 07:03:51;;;;;;;9.88;6.70;;;;;;;9.06;73.80;99254.56;5038450;28;20575;-84
2021/03/11 07:06:34;;;;;;;11.95;6.45;;;;;;;9.02;73.79;99226.63;5021145;28;20057;-87
2021/03/11 07:09:06;;;;;;;9.93;6.53;;;;;;;9.04;74.16;99236.19;5029623;28;20046;-84
2021/03/11 07:11:34;;;;;;;10.68;6.80;;;;;;;9.08;74.07;99234.22;5027395;28;20109;-86
2021/03/11 07:14:04;;;;;;;10.07;6.25;;;;;;;9.12;74.03;99238.38;5044974;28;20040;-86
2021/03/11 07:16:34;;;;;;;10.10;6.90;;;;;;;9.15;73.88;99244.31;5054377;28;20116;-83
2021/03/11 07:19:16;;;;;;;10.85;5.95;;;;;;;9.18;73.95;99227.44;5054752;28;20052;-85
2021/03/11 07:21:50;;;;;;;7.55;5.25;;;;;;;9.21;74.06;99227.25;5042902;28;20080;-86
2021/03/11 07:24:37;;;;;;;11.82;5.78;;;;;;;9.18;74.19;99232.72;5053487;28;20063;-84
2021/03/11 07:27:07;;;;;;;8.85;5.47;;;;;;;9.17;74.59;99241.56;5043560;28;20059;-84
2021/03/11 07:29:34;;;;;;;9.98;6.10;;;;;;;9.15;75.02;99244.31;5038812;28;20045;-83
2021/03/11 07:32:02;;;;;;;7.68;5.07;;;;;;;9.20;74.98;99228.19;5030323;28;20109;-85
2021/03/11 07:34:35;;;;;;;9.18;5.10;;;;;;;9.20;75.22;99233.47;5050402;28;20055;-86
2021/03/11 07:37:02;;;;;;;7.60;4.60;;;;;;;9.24;75.06;99228.88;5045362;28;20084;-83
2021/03/11 07:39:40;;;;;;;8.57;4.50;;;;;;;9.31;75.38;99236.31;5051915;28;20053;-84
2021/03/11 07:42:07;;;;;;;8.40;4.60;;;;;;;9.34;75.04;99252.00;5044983;28;20057;-82
2021/03/11 07:44:41;;;;;;;9.70;4.88;;;;;;;9.31;75.19;99235.47;5049230;28;20084;-83
2021/03/11 07:47:22;;;;;;;6.38;4.47;;;;;;;9.35;75.57;99252.84;5045022;28;20049;-85
2021/03/11 07:49:49;;;;;;;6.82;4.63;;;;;;;9.28;75.96;99249.72;5053972;28;20029;-87
2021/03/11 07:52:16;;;;;;;9.18;5.20;;;;;;;9.25;76.29;99238.50;5031623;28;20057;-85
2021/03/11 07:54:45;;;;;;;6.85;4.40;;;;;;;9.23;76.65;99235.94;5050951;28;20064;-85
2021/03/11 07:57:12;;;;;;;7.57;4.95;;;;;;;9.28;76.17;99218.03;5046777;28;20109;-82
2021/03/11 07:59:44;;;;;;;6.35;4.38;;;;;;;9.39;76.01;99233.22;5046782;28;20725;-86
2021/03/11 08:02:16;;;;;;;8.32;4.40;;;;;;;9.39;76.19;99235.88;5031216;28;20060;-82
2021/03/11 08:04:44;;;;;;;7.80;4.75;;;;;;;9.39;76.16;99257.84;5047640;28;20065;-83
2021/03/11 08:07:26;;;;;;;6.10;3.88;;;;;;;9.40;76.53;99250.78;5048850;28;20049;-83
2021/03/11 08:09:56;;;;;;;6.10;4.53;;;;;;;9.40;77.43;99249.00;5054430;28;20060;-86
2021/03/11 08:12:33;;;;;;;9.27;4.57;;;;;;;9.39;78.17;99255.22;5056114;28;20045;-83
2021/03/11 08:15:27;;;;;;;6.93;4.72;;;;;;;9.31;78.86;99238.94;5045234;28;20117;-85
2021/03/11 08:17:54;;;;;;;7.90;4.53;;;;;;;9.29;79.93;99246.13;5020877;28;20049;-85
2021/03/11 08:20:32;;;;;;;8.02;5.18;;;;;;;9.24;79.97;99236.78;5041605;28;20060;-85
2021/03/11 08:23:01;;;;;;;7.00;4.80;;;;;;;9.20;79.94;99222.06;5021703;28;20061;-84
2021/03/11 08:25:36;;;;;;;7.05;4.78;;;;;;;9.17;80.78;99193.19;5034053;28;20108;-84
2021/03/11 08:28:08;;;;;;;7.55;4.70;;;;;;;9.13;80.51;99197.78;5039068;28;20550;-86
2021/03/11 08:30:39;;;;;;;8.93;4.97;;;;;;;9.14;80.59;99199.50;5043137;28;20049;-86
2021/03/11 08:33:15;;;;;;;7.13;4.93;;;;;;;9.22;80.26;99186.69;5038093;28;20050;-83
2021/03/11 08:35:45;;;;;;;8.68;4.85;;;;;;;9.29;80.36;99198.56;5020489;28;20046;-83
2021/03/11 08:38:20;;;;;;;9.13;5.00;;;;;;;9.31;80.30;99188.75;5021037;28;20092;-82
2021/03/11 08:40:55;;;;;;;6.38;4.32;;;;;;;9.40;79.98;99200.56;5036649;28;20038;-85
2021/03/11 08:43:41;;;;;;;7.68;5.15;;;;;;;9.42;79.60;99182.84;5020731;28;20138;-82
2021/03/11 08:46:24;;;;;;;7.63;4.85;;;;;;;9.43;79.37;99180.09;5038143;28;20053;-82
2021/03/11 08:49:02;;;;;;;6.97;4.18;;;;;;;9.51;79.13;99187.53;5041658;28;20053;-83
2021/03/11 08:51:29;;;;;;;7.70;4.53;;;;;;;9.50;79.18;99180.56;5043521;28;20060;-83
2021/03/11 08:54:06;;;;;;;6.47;4.35;;;;;;;9.57;79.03;99181.91;5043894;28;20064;-83
2021/03/11 08:56:36;;;;;;;8.25;4.50;;;;;;;9.59;78.91;99161.50;5044327;28;20038;-85
2021/03/11 08:59:10;;;;;;;6.38;4.78;;;;;;;9.56;79.11;99163.50;5052846;28;20054;-85
2021/03/11 09:01:53;;;;;;;7.03;4.97;;;;;;;9.49;79.47;99171.78;5037488;28;20137;-86
2021/03/11 09:04:20;;;;;;;6.85;4.70;;;;;;;9.50;79.61;99165.56;5046142;28;20080;-86
2021/03/11 09:06:50;;;;;;;6.90;4.22;;;;;;;9.63;79.08;99163.00;5047177;28;20084;-84
2021/03/11 09:09:17;;;;;;;7.67;5.03;;;;;;;9.64;78.92;99155.91;5041813;28;20493;-84
2021/03/11 09:11:55;;;;;;;8.23;4.63;;;;;;;9.63;78.98;99151.56;5052623;28;20171;-85
2021/03/11 09:14:23;;;;;;;6.40;4.82;;;;;;;9.67;78.96;99155.72;5045317;28;20045;-84
2021/03/11 09:17:10;;;;;;;9.98;5.65;;;;;;;9.65;79.36;99147.03;5042210;28;20165;-84
2021/03/11 09:19:44;;;;;;;6.68;4.63;;;;;;;9.74;79.19;99143.84;5037578;28;20496;-85
2021/03/11 09:22:20;;;;;;;9.43;4.40;;;;;;;9.71;79.02;99141.38;5036817;28;20046;-84
2021/03/11 09:25:19;;;;;;;7.70;4.55;;;;;;;9.73;78.97;99150.06;5038935;28;20053;-84
2021/03/11 09:28:03;;;;;;;8.20;4.75;;;;;;;9.81;78.77;99145.97;5039746;28;20049;-85
2021/03/11 09:30:41;;;;;;;8.63;4.80;;;;;;;9.80;79.14;99140.78;5041073;28;20053;-86
2021/03/11 09:33:23;;;;;;;7.10;4.63;;;;;;;9.83;79.17;99146.72;5020009;28;20131;-84
2021/03/11 09:35:52;;;;;;;7.93;4.57;;;;;;;9.79;79.20;99142.56;5034804;28;20060;-85
2021/03/11 09:38:26;;;;;;;6.95;4.85;;;;;;;9.87;79.25;99157.13;5019807;28;20797;-84
2021/03/11 09:40:56;;;;;;;10.23;5.32;;;;;;;9.84;79.37;99143.13;5035362;28;20053;-84
2021/03/11 09:43:30;;;;;;;6.85;4.45;;;;;;;9.81;79.35;99138.03;5035511;28;20049;-84
2021/03/11 09:46:16;;;;;;;7.32;4.97;;;;;;;9.79;79.99;99133.78;5018787;28;20053;-83
2021/03/11 09:48:45;;;;;;;7.97;4.97;;;;;;;9.86;79.69;99135.13;5022426;28;20057;-84
2021/03/11 09:51:15;;;;;;;7.63;4.50;;;;;;;9.87;79.96;99128.03;5033443;28;20076;-87
2021/03/11 09:53:48;;;;;;;9.98;4.97;;;;;;;9.90;79.77;99135.78;5045989;28;20087;-86
2021/03/11 09:56:21;;;;;;;7.90;4.82;;;;;;;9.88;80.23;99132.38;5046238;28;20026;-84
2021/03/11 09:58:51;;;;;;;6.53;4.78;;;;;;;9.94;79.88;99138.09;5040358;28;20060;-86
2021/03/11 10:01:24;;;;;;;9.57;5.45;;;;;;;9.94;81.07;99127.53;5033062;28;20053;-86
2021/03/11 10:03:54;;;;;;;9.45;5.20;;;;;;;9.93;81.94;99127.63;5053776;28;20061;-84
2021/03/11 10:06:32;;;;;;;8.85;5.32;;;;;;;9.90;83.08;99123.41;5017942;28;20062;-83
2021/03/11 10:08:59;;;;;;;8.38;5.40;;;;;;;9.89;83.96;99119.06;5031025;28;20054;-84
2021/03/11 10:11:47;;;;;;;8.02;5.15;;;;;;;9.79;84.12;99116.13;5019731;28;20587;-81
2021/03/11 10:14:23;;;;;;;7.43;5.50;;;;;;;9.80;84.52;99111.69;5018514;28;20132;-83
2021/03/11 10:16:54;;;;;;;7.65;5.30;;;;;;;9.78;84.47;99111.78;5020037;28;20049;-84
2021/03/11 10:19:26;;;;;;;7.82;5.13;;;;;;;9.78;84.41;99103.00;5017485;28;20077;-86
2021/03/11 10:22:04;;;;;;;9.80;5.40;;;;;;;9.75;84.21;99090.88;5035327;28;20088;-85
2021/03/11 10:24:53;;;;;;;7.72;5.10;;;;;;;9.73;84.01;99086.63;5020513;28;20060;-85
2021/03/11 10:27:29;;;;;;;8.90;5.35;;;;;;;9.81;83.64;99090.44;5037225;28;20053;-82
2021/03/11 10:30:23;;;;;;;6.70;5.20;;;;;;;9.84;83.77;99084.97;5038127;28;20049;-84
2021/03/11 10:32:58;;;;;;;8.02;5.30;;;;;;;9.90;83.30;99078.44;5050182;28;20058;-83
2021/03/11 10:35:34;;;;;;;7.43;4.80;;;;;;;9.91;83.22;99072.22;5040066;28;20128;-83
2021/03/11 10:38:21;;;;;;;7.30;4.78;;;;;;;9.99;82.93;99066.41;5047206;28;20053;-84
2021/03/11 10:40:49;;;;;;;6.90;4.97;;;;;;;10.03;82.97;99079.34;5051056;28;20113;-83
2021/03/11 10:43:21;;;;;;;7.13;4.72;;;;;;;10.06;82.87;99049.22;5047799;28;20097;-83
2021/03/11 10:45:49;;;;;;;7.05;5.03;;;;;;;10.15;82.35;99035.34;5037208;28;20049;-83
2021/03/11 10:48:17;;;;;;;6.30;4.75;;;;;;;10.23;82.15;99041.00;5045119;28;20109;-85
2021/03/11 10:51:01;;;;;;;8.65;4.55;;;;;;;10.25;81.92;99040.91;5048971;28;20065;-84
2021/03/11 10:53:38;;;;;;;7.57;5.00;;;;;;;10.27;81.96;99034.56;5045899;28;20061;-83
2021/03/11 10:56:08;;;;;;;6.15;4.55;;;;;;;10.39;81.62;99024.97;5034107;28;20042;-82
2021/03/11 10:58:37;;;;;;;7.47;4.63;;;;;;;10.43;81.13;99010.56;5029284;28;20042;-84
2021/03/11 11:01:14;;;;;;;5.70;4.10;;;;;;;10.51;81.37;99018.84;5033228;28;20045;-86
2021/03/11 11:03:44;;;;;;;7.07;3.90;;;;;;;10.60;80.89;99019.97;5027367;28;20053;-82
2021/03/11 11:06:16;;;;;;;5.70;3.80;;;;;;;10.69;80.04;99006.97;5045951;28;20104;-85
2021/03/11 11:08:47;;;;;;;7.05;4.07;;;;;;;10.78;79.41;99014.28;5031183;28;20182;-84
2021/03/11 11:11:16;;;;;;;6.60;4.10;;;;;;;10.86;79.46;99003.16;5045336;28;20044;-84
2021/03/11 11:13:42;;;;;;;6.05;4.35;;;;;;;10.86;79.17;99001.31;5028832;28;20508;-85
2021/03/11 11:16:10;;;;;;;4.90;4.30;;;;;;;10.91;79.16;98979.81;5037843;28;20077;-84
2021/03/11 11:18:38;;;;;;;4.90;3.80;;;;;;;11.01;78.38;98988.00;5038282;28;20045;-84
2021/03/11 11:21:06;;;;;;;4.47;3.33;;;;;;;11.09;78.04;98970.56;5046859;28;20041;-85
2021/03/11 11:23:32;;;;;;;5.07;3.88;;;;;;;11.19;78.28;98966.28;5045456;28;20113;-83
2021/03/11 11:26:00;;;;;;;5.60;3.75;;;;;;;11.26;77.75;98964.06;5042889;28;20045;-84
2021/03/11 11:28:26;;;;;;;6.53;3.30;;;;;;;11.33;77.46;98957.38;5046299;28;20060;-83
2021/03/11 11:30:53;;;;;;;3.83;2.85;;;;;;;11.40;76.78;98971.84;5022683;28;20128;-83
2021/03/11 11:33:23;;;;;;;4.85;2.80;;;;;;;11.52;76.69;98973.59;5034798;28;20053;-86
2021/03/11 11:35:53;;;;;;;4.20;3.10;;;;;;;11.62;76.47;98983.56;5039822;28;20103;-86
2021/03/11 11:38:20;;;;;;;4.10;2.80;;;;;;;11.61;76.79;98966.78;5037033;28;20149;-82
2021/03/11 11:40:46;;;;;;;4.30;3.30;;;;;;;11.65;77.66;98993.94;5041784;28;20084;-84
2021/03/11 11:43:13;;;;;;;3.50;2.40;;;;;;;11.69;78.43;98985.63;5042943;28;20109;-82
2021/03/11 11:45:40;;;;;;;3.92;2.80;;;;;;;11.66;79.17;98979.69;5033613;28;20077;-84
2021/03/11 11:48:09;;;;;;;3.53;3.00;;;;;;;11.68;79.40;98994.53;5038832;28;20065;-83
2021/03/11 11:50:52;;;;;;;3.13;2.60;;;;;;;11.72;79.34;98989.84;5025837;28;20053;-85